Zenda, Wisconsin
Current Conditions -  °F | °C
As of 6:15 AM on Sunday 23 Nov 2014 (Local Time) from KBUU Reporting Station
Overcast Overcast  
Wind Chill: 42°   Ceiling: 900
Heat Index: 47°   Visibility: 7mi
Dew Point: 46°   Wind: 12mph
Humidity: 95%   Direction: 200°SSW
Pressure: 29.7"   Gusts: NA
Location:  42.51°N, 88.48°W
Report Text: KBUU 231215Z AUTO 20010KT 7SM OVC009 09/08 A2970 RMK AO2 T00850077
Loading
Personal Weather Stations






























Interactive Weather Map New forecast layout! Learn more

10-Day Weather Forecast

Advertisements
Track Severe Weather on mobile